createdAt,value
2023-02-04T00:00:37.255Z,8.00
2023-02-04T00:03:05.913Z,8.00
2023-02-04T00:05:34.013Z,8.00
2023-02-04T00:08:01.991Z,8.10
2023-02-04T00:10:30.194Z,8.10
2023-02-04T00:12:59.774Z,8.10
2023-02-04T00:15:27.740Z,8.10
2023-02-04T00:17:55.689Z,8.00
2023-02-04T00:20:23.808Z,8.00
2023-02-04T00:22:52.066Z,8.10
2023-02-04T00:25:20.062Z,8.10
2023-02-04T00:27:48.017Z,8.10
2023-02-04T00:30:17.601Z,8.10
2023-02-04T00:32:45.545Z,8.10
2023-02-04T00:35:16.203Z,8.10
2023-02-04T00:37:44.109Z,8.10
2023-02-04T00:40:13.387Z,8.10
2023-02-04T00:42:41.570Z,8.10
2023-02-04T00:45:10.522Z,8.10
2023-02-04T00:47:41.227Z,8.20
2023-02-04T00:50:09.474Z,8.20
2023-02-04T00:52:38.475Z,8.20
2023-02-04T00:55:07.954Z,8.20
2023-02-04T00:57:35.916Z,8.20
2023-02-04T01:00:03.993Z,8.20
2023-02-04T01:02:32.134Z,8.30
2023-02-04T01:05:01.552Z,8.20
2023-02-04T01:07:29.589Z,8.30
2023-02-04T01:09:57.680Z,8.30
2023-02-04T01:12:27.279Z,8.30
2023-02-04T01:14:55.648Z,8.30
2023-02-04T01:17:23.716Z,8.30
2023-02-04T01:19:51.737Z,8.30
2023-02-04T01:22:22.365Z,8.30
2023-02-04T01:24:50.678Z,8.30
2023-02-04T01:27:37.543Z,8.40
2023-02-04T01:30:06.813Z,8.40
2023-02-04T01:32:35.253Z,8.40
2023-02-04T01:35:03.213Z,8.40
2023-02-04T01:37:32.529Z,8.40
2023-02-04T01:40:00.655Z,8.50
2023-02-04T01:42:28.900Z,8.40
2023-02-04T01:44:57.015Z,8.40
2023-02-04T01:47:25.670Z,8.40
2023-02-04T01:49:55.587Z,8.40
2023-02-04T01:52:24.405Z,8.50
2023-02-04T01:54:54.697Z,8.40
2023-02-04T01:57:22.842Z,8.40
2023-02-04T01:59:53.322Z,8.40
2023-02-04T02:02:45.866Z,8.40
2023-02-04T02:05:18.401Z,8.40
2023-02-04T02:07:46.550Z,8.50
2023-02-04T02:10:16.932Z,8.40
2023-02-04T02:12:45.360Z,8.50
2023-02-04T02:15:15.188Z,8.50
2023-02-04T02:17:43.560Z,8.50
2023-02-04T02:20:14.725Z,8.40
2023-02-04T02:22:49.849Z,8.40
2023-02-04T02:25:19.383Z,8.40
2023-02-04T02:27:47.496Z,8.40
2023-02-04T02:30:17.892Z,8.40
2023-02-04T02:32:47.083Z,8.40
2023-02-04T02:35:16.417Z,8.40
2023-02-04T02:37:44.712Z,8.40
2023-02-04T02:40:15.860Z,8.50
2023-02-04T02:42:49.644Z,8.50
2023-02-04T02:45:22.852Z,8.50
2023-02-04T02:47:51.995Z,8.50
2023-02-04T02:50:24.882Z,8.50
2023-02-04T02:52:53.531Z,8.50
2023-02-04T02:55:24.897Z,8.50
2023-02-04T02:57:55.671Z,8.60
2023-02-04T03:00:26.022Z,8.60
2023-02-04T03:03:03.996Z,8.50
2023-02-04T03:05:36.912Z,8.60
2023-02-04T03:08:06.536Z,8.60
2023-02-04T03:10:36.109Z,8.60
2023-02-04T03:13:05.785Z,8.60
2023-02-04T03:15:34.094Z,8.50
2023-02-04T03:18:03.862Z,8.50
2023-02-04T03:20:33.444Z,8.60
2023-02-04T03:23:02.144Z,8.60
2023-02-04T03:25:30.191Z,8.60
2023-02-04T03:28:00.167Z,8.60
2023-02-04T03:30:29.937Z,8.60
2023-02-04T03:32:58.379Z,8.60
2023-02-04T03:35:26.422Z,8.60
2023-02-04T03:37:54.458Z,8.70
2023-02-04T03:40:22.425Z,8.60
2023-02-04T03:42:50.582Z,8.70
2023-02-04T03:45:18.730Z,8.60
2023-02-04T03:47:48.059Z,8.60
2023-02-04T03:50:16.599Z,8.50
2023-02-04T03:52:45.051Z,8.40
2023-02-04T03:55:13.018Z,8.40
2023-02-04T03:57:40.997Z,8.30
2023-02-04T04:00:10.537Z,8.20
2023-02-04T04:02:42.573Z,8.10
2023-02-04T04:05:12.364Z,8.00
2023-02-04T04:07:40.329Z,8.20
2023-02-04T04:10:08.841Z,8.00
2023-02-04T04:12:36.774Z,8.00
2023-02-04T04:15:05.632Z,7.90
2023-02-04T04:17:33.874Z,7.90
2023-02-04T04:20:01.852Z,7.90
2023-02-04T04:22:31.283Z,7.90
2023-02-04T04:24:59.231Z,7.90
2023-02-04T04:27:27.160Z,7.90
2023-02-04T04:29:55.111Z,7.90
2023-02-04T04:32:23.304Z,7.90
2023-02-04T04:34:51.333Z,7.90
2023-02-04T04:37:19.354Z,7.90
2023-02-04T04:39:48.638Z,7.90
2023-02-04T04:42:16.602Z,7.90
2023-02-04T04:44:44.568Z,8.00
2023-02-04T04:47:12.840Z,8.00
2023-02-04T04:49:40.865Z,8.00
2023-02-04T04:52:08.891Z,8.00
2023-02-04T04:54:36.863Z,8.00
2023-02-04T04:57:06.312Z,8.00
2023-02-04T04:59:34.279Z,8.00
2023-02-04T05:02:02.298Z,7.90
2023-02-04T05:04:30.373Z,8.00
2023-02-04T05:06:58.375Z,7.90
2023-02-04T05:09:26.358Z,7.90
2023-02-04T05:11:54.331Z,7.90
2023-02-04T05:14:23.635Z,7.90
2023-02-04T05:16:51.557Z,8.00
2023-02-04T05:19:19.510Z,7.90
2023-02-04T05:21:47.544Z,7.90
2023-02-04T05:24:15.672Z,8.00
2023-02-04T05:26:43.650Z,8.20
2023-02-04T05:29:11.882Z,7.90
2023-02-04T05:31:41.252Z,7.90
2023-02-04T05:34:09.195Z,7.90
2023-02-04T05:36:37.154Z,7.90
2023-02-04T05:39:05.277Z,7.90
2023-02-04T05:41:33.284Z,7.90
2023-02-04T05:44:01.305Z,7.90
2023-02-04T05:46:29.239Z,7.90
2023-02-04T05:48:58.596Z,7.90
2023-02-04T05:51:26.582Z,7.90
2023-02-04T05:53:54.594Z,7.80
2023-02-04T05:56:22.565Z,7.90
2023-02-04T05:58:50.539Z,7.90
2023-02-04T06:01:18.657Z,7.90
2023-02-04T06:03:46.569Z,7.80
2023-02-04T06:06:15.959Z,7.90
2023-02-04T06:08:43.897Z,7.80
2023-02-04T06:11:11.846Z,7.80
2023-02-04T06:13:39.817Z,7.80
2023-02-04T06:16:08.589Z,7.70
2023-02-04T06:18:36.749Z,7.70
2023-02-04T06:21:04.797Z,7.60
2023-02-04T06:23:34.602Z,7.60
2023-02-04T06:26:02.669Z,7.50
2023-02-04T06:28:30.871Z,7.50
2023-02-04T06:30:58.968Z,7.60
2023-02-04T06:33:27.003Z,7.60
2023-02-04T06:35:55.504Z,7.50
2023-02-04T06:38:23.456Z,7.50
2023-02-04T06:40:53.756Z,7.50
2023-02-04T06:43:23.958Z,7.50
2023-02-04T06:45:52.091Z,7.40
2023-02-04T06:48:20.128Z,7.40
2023-02-04T06:50:48.258Z,7.40
2023-02-04T06:53:16.225Z,7.40
2023-02-04T06:55:44.193Z,7.30
2023-02-04T06:58:13.479Z,7.30
2023-02-04T07:00:41.426Z,7.30
2023-02-04T07:03:09.387Z,7.20
2023-02-04T07:05:37.456Z,7.10
2023-02-04T07:08:06.141Z,7.10
2023-02-04T07:10:34.532Z,7.10
2023-02-04T07:13:02.729Z,7.10
2023-02-04T07:15:32.046Z,7.10
2023-02-04T07:18:00.193Z,7.10
2023-02-04T07:20:28.173Z,7.10
2023-02-04T07:22:56.250Z,7.10
2023-02-04T07:25:24.257Z,7.10
2023-02-04T07:27:52.851Z,7.10
2023-02-04T07:30:20.925Z,7.00
2023-02-04T07:32:50.234Z,6.90
2023-02-04T07:35:18.663Z,6.90
2023-02-04T07:37:46.744Z,6.80
2023-02-04T07:40:14.832Z,6.70
2023-02-04T07:42:42.962Z,6.70
2023-02-04T07:45:17.074Z,6.70
2023-02-04T07:47:45.082Z,6.60
2023-02-04T07:50:14.454Z,6.70
2023-02-04T07:52:42.435Z,6.70
2023-02-04T07:55:10.681Z,6.70
2023-02-04T07:57:38.664Z,6.80
2023-02-04T08:00:07.662Z,6.90
2023-02-04T08:02:42.327Z,6.90
2023-02-04T08:05:11.082Z,6.90
2023-02-04T08:07:40.624Z,6.90
2023-02-04T08:10:10.217Z,6.90
2023-02-04T08:12:38.234Z,6.90
2023-02-04T08:15:07.722Z,6.90
2023-02-04T08:17:35.904Z,6.90
2023-02-04T08:20:04.598Z,6.90
2023-02-04T08:22:32.660Z,6.90
2023-02-04T08:25:02.158Z,7.00
2023-02-04T08:27:30.120Z,7.00
2023-02-04T08:29:58.282Z,7.00
2023-02-04T08:32:29.457Z,7.00
2023-02-04T08:34:57.460Z,7.10
2023-02-04T08:37:25.723Z,7.10
2023-02-04T08:39:53.978Z,7.10
2023-02-04T08:42:23.353Z,7.10
2023-02-04T08:44:51.466Z,7.10
2023-02-04T08:47:19.453Z,7.00
2023-02-04T08:49:47.466Z,7.00
2023-02-04T08:52:18.909Z,7.00
2023-02-04T08:54:47.209Z,7.10
2023-02-04T08:57:15.179Z,7.10
2023-02-04T08:59:45.780Z,7.20
2023-02-04T09:02:13.751Z,7.30
2023-02-04T09:04:41.723Z,7.40
2023-02-04T09:07:09.635Z,7.40
2023-02-04T09:09:38.131Z,7.50
2023-02-04T09:12:06.151Z,7.60
2023-02-04T09:14:34.086Z,7.70
2023-02-04T09:17:04.361Z,7.80
2023-02-04T09:19:32.300Z,7.90
2023-02-04T09:22:00.254Z,7.90
2023-02-04T09:24:28.179Z,8.00
2023-02-04T09:26:56.158Z,8.10
2023-02-04T09:29:24.090Z,8.20
2023-02-04T09:31:52.090Z,8.30
2023-02-04T09:34:21.501Z,8.30
2023-02-04T09:36:49.420Z,8.30
2023-02-04T09:39:17.651Z,8.30
2023-02-04T09:41:45.739Z,8.20
2023-02-04T09:44:17.896Z,8.10
2023-02-04T09:46:50.520Z,8.00
2023-02-04T09:49:18.849Z,8.00
2023-02-04T09:51:49.022Z,8.00
2023-02-04T09:54:19.200Z,8.00
2023-02-04T09:56:48.003Z,8.10
2023-02-04T09:59:18.191Z,8.20
2023-02-04T10:01:47.026Z,8.30
2023-02-04T10:04:16.304Z,8.40
2023-02-04T10:06:45.271Z,8.50
2023-02-04T10:09:16.953Z,8.60
2023-02-04T10:11:47.355Z,8.60
2023-02-04T10:14:19.290Z,8.80
2023-02-04T10:16:53.640Z,8.80
2023-02-04T10:19:21.696Z,8.90
2023-02-04T10:21:49.637Z,8.90
2023-02-04T10:24:22.537Z,9.00
2023-02-04T10:26:50.649Z,9.10
2023-02-04T10:29:20.576Z,9.20
2023-02-04T10:31:50.209Z,9.30
2023-02-04T10:34:20.807Z,9.20
2023-02-04T10:36:50.566Z,9.20
2023-02-04T10:39:21.869Z,9.20
2023-02-04T10:41:51.576Z,9.20
2023-02-04T10:44:23.078Z,9.20
2023-02-04T10:46:52.228Z,9.30
2023-02-04T10:49:23.634Z,9.20
2023-02-04T10:51:53.455Z,9.30
2023-02-04T10:54:32.037Z,9.30
2023-02-04T10:57:03.951Z,9.20
2023-02-04T10:59:32.521Z,9.10
2023-02-04T11:02:03.455Z,9.10
2023-02-04T11:04:32.295Z,9.10
2023-02-04T11:07:00.809Z,9.10
2023-02-04T11:09:30.312Z,9.10
2023-02-04T11:12:00.800Z,9.10
2023-02-04T11:14:31.854Z,9.20
2023-02-04T11:17:01.462Z,9.20
2023-02-04T11:19:35.220Z,9.20
2023-02-04T11:22:09.070Z,9.10
2023-02-04T11:24:38.415Z,9.20
2023-02-04T11:27:09.255Z,9.20
2023-02-04T11:29:39.385Z,9.30
2023-02-04T11:32:15.031Z,9.40
2023-02-04T11:34:53.029Z,9.50
2023-02-04T11:37:36.723Z,9.70
2023-02-04T11:40:23.832Z,9.80
2023-02-04T11:42:56.797Z,10.00
2023-02-04T11:45:28.308Z,10.00
2023-02-04T11:47:59.124Z,10.00
2023-02-04T11:50:30.445Z,9.90
2023-02-04T11:52:59.538Z,9.90
2023-02-04T11:55:30.754Z,9.90
2023-02-04T11:57:59.440Z,10.00
2023-02-04T12:00:31.293Z,10.00
2023-02-04T12:03:02.233Z,10.10
2023-02-04T12:05:43.877Z,10.10
2023-02-04T12:08:13.693Z,10.10
2023-02-04T12:10:50.613Z,10.00
2023-02-04T12:13:20.357Z,9.90
2023-02-04T12:15:59.007Z,9.90
2023-02-04T12:18:27.846Z,9.90
2023-02-04T12:20:56.612Z,9.90
2023-02-04T12:23:24.726Z,9.80
2023-02-04T12:25:54.295Z,9.80
2023-02-04T12:28:22.779Z,9.80
2023-02-04T12:30:51.033Z,9.90
2023-02-04T12:33:19.076Z,10.00
2023-02-04T12:35:47.487Z,10.10
2023-02-04T12:38:15.745Z,10.10
2023-02-04T12:40:43.671Z,10.10
2023-02-04T12:43:13.087Z,10.00
2023-02-04T12:45:45.522Z,10.00
2023-02-04T12:48:13.879Z,9.90
2023-02-04T12:50:42.062Z,9.80
2023-02-04T12:53:10.109Z,9.80
2023-02-04T12:55:38.178Z,9.80
2023-02-04T12:58:06.191Z,9.80
2023-02-04T13:00:35.614Z,9.80
2023-02-04T13:03:03.917Z,9.90
2023-02-04T13:05:32.613Z,9.90
2023-02-04T13:08:00.933Z,10.00
2023-02-04T13:10:28.934Z,10.10
2023-02-04T13:12:56.848Z,10.20
2023-02-04T13:15:24.790Z,10.30
2023-02-04T13:17:55.361Z,10.40
2023-02-04T13:20:23.337Z,10.60
2023-02-04T13:22:51.309Z,10.60
2023-02-04T13:25:19.347Z,10.80
2023-02-04T13:27:47.564Z,10.80
2023-02-04T13:30:16.179Z,10.90
2023-02-04T13:32:44.143Z,10.80
2023-02-04T13:35:13.458Z,10.80
2023-02-04T13:37:41.486Z,10.70
2023-02-04T13:40:12.066Z,10.70
2023-02-04T13:42:40.121Z,10.60
2023-02-04T13:45:12.238Z,10.60
2023-02-04T13:47:40.427Z,10.60
2023-02-04T13:50:09.657Z,10.60
2023-02-04T13:52:39.149Z,10.60
2023-02-04T13:55:07.791Z,10.60
2023-02-04T13:57:37.305Z,10.50
2023-02-04T14:00:07.026Z,10.50
2023-02-04T14:02:40.444Z,10.40
2023-02-04T14:05:08.690Z,10.40
2023-02-04T14:07:38.344Z,10.30
2023-02-04T14:10:07.153Z,10.30
2023-02-04T14:12:35.416Z,10.30
2023-02-04T14:15:03.446Z,10.20
2023-02-04T14:17:31.428Z,10.20
2023-02-04T14:19:59.322Z,10.20
2023-02-04T14:22:27.329Z,10.20
2023-02-04T14:24:56.625Z,10.20
2023-02-04T14:27:24.637Z,10.20
2023-02-04T14:29:52.908Z,10.20
2023-02-04T14:32:21.729Z,10.20
2023-02-04T14:34:49.720Z,10.20
2023-02-04T14:37:18.003Z,10.10
2023-02-04T14:39:45.942Z,10.00
2023-02-04T14:42:15.258Z,9.90
2023-02-04T14:44:43.273Z,9.90
2023-02-04T14:47:11.478Z,10.00
2023-02-04T14:49:39.625Z,10.00
2023-02-04T14:52:09.132Z,10.10
2023-02-04T14:54:38.273Z,10.20
2023-02-04T14:57:06.332Z,10.20
2023-02-04T14:59:35.839Z,10.20
2023-02-04T15:02:04.043Z,10.20
2023-02-04T15:04:32.610Z,10.20
2023-02-04T15:07:00.868Z,10.30
2023-02-04T15:09:29.084Z,10.20
2023-02-04T15:11:57.158Z,10.20
2023-02-04T15:14:25.142Z,10.20
2023-02-04T15:16:54.477Z,10.10
2023-02-04T15:19:23.754Z,10.10
2023-02-04T15:21:52.085Z,10.10
2023-02-04T15:24:20.101Z,10.10
2023-02-04T15:26:48.207Z,10.00
2023-02-04T15:29:16.197Z,10.00
2023-02-04T15:31:44.609Z,9.90
2023-02-04T15:34:14.064Z,9.80
2023-02-04T15:36:42.075Z,9.70
2023-02-04T15:39:10.093Z,9.60
2023-02-04T15:41:38.066Z,9.50
2023-02-04T15:44:06.969Z,9.40
2023-02-04T15:46:35.276Z,9.20
2023-02-04T15:49:06.754Z,9.20
2023-02-04T15:51:36.100Z,9.10
2023-02-04T15:54:04.143Z,9.00
2023-02-04T15:56:32.494Z,8.90
2023-02-04T15:59:02.367Z,8.80
2023-02-04T16:01:30.698Z,8.70
2023-02-04T16:03:59.042Z,8.50
2023-02-04T16:06:27.069Z,8.50
2023-02-04T16:08:56.356Z,8.40
2023-02-04T16:11:24.286Z,8.30
2023-02-04T16:13:52.246Z,8.20
2023-02-04T16:16:20.745Z,8.10
2023-02-04T16:18:48.761Z,8.10
2023-02-04T16:21:16.740Z,8.00
2023-02-04T16:23:44.686Z,7.90
2023-02-04T16:26:14.390Z,7.90
2023-02-04T16:28:42.442Z,7.70
2023-02-04T16:31:10.641Z,7.60
2023-02-04T16:33:38.763Z,7.50
2023-02-04T16:36:11.611Z,7.50
2023-02-04T16:38:40.079Z,7.40
2023-02-04T16:41:08.197Z,7.30
2023-02-04T16:43:37.866Z,7.20
2023-02-04T16:46:06.476Z,7.20
2023-02-04T16:48:36.177Z,7.10
2023-02-04T16:51:04.456Z,7.10
2023-02-04T16:53:32.402Z,7.00
2023-02-04T16:56:00.390Z,6.90
2023-02-04T16:58:28.352Z,6.80
2023-02-04T17:00:58.696Z,6.80
2023-02-04T17:03:28.004Z,6.80
2023-02-04T17:05:55.934Z,6.70
2023-02-04T17:08:23.856Z,6.70
2023-02-04T17:11:09.111Z,6.70
2023-02-04T17:13:37.216Z,6.60
2023-02-04T17:16:06.973Z,6.60
2023-02-04T17:18:34.993Z,6.50
2023-02-04T17:21:03.285Z,6.50
2023-02-04T17:23:31.501Z,6.50
2023-02-04T17:25:59.486Z,6.60
2023-02-04T17:28:27.470Z,6.60
2023-02-04T17:30:55.623Z,6.50
2023-02-04T17:33:25.085Z,6.50
2023-02-04T17:35:53.004Z,6.50
2023-02-04T17:38:21.892Z,6.40
2023-02-04T17:40:50.175Z,6.40
2023-02-04T17:43:18.494Z,6.40
2023-02-04T17:45:46.429Z,6.40
2023-02-04T17:48:15.051Z,6.40
2023-02-04T17:50:44.858Z,6.40
2023-02-04T17:53:13.441Z,6.40
2023-02-04T17:55:41.470Z,6.40
2023-02-04T17:58:14.137Z,6.40
2023-02-04T18:00:43.703Z,6.40
2023-02-04T18:03:14.342Z,6.40
2023-02-04T18:05:46.433Z,6.40
2023-02-04T18:08:17.177Z,6.40
2023-02-04T18:10:46.962Z,6.40
2023-02-04T18:13:17.244Z,6.40
2023-02-04T18:15:47.296Z,6.40
2023-02-04T18:18:24.332Z,6.40
2023-02-04T18:21:01.164Z,6.50
2023-02-04T18:23:31.558Z,6.40
2023-02-04T18:26:06.262Z,6.40
2023-02-04T18:28:35.697Z,6.40
2023-02-04T18:31:04.677Z,6.40
2023-02-04T18:33:34.648Z,6.40
2023-02-04T18:36:04.230Z,6.40
2023-02-04T18:38:37.172Z,6.30
2023-02-04T18:41:21.935Z,6.30
2023-02-04T18:43:51.710Z,6.30
2023-02-04T18:46:25.745Z,6.30
2023-02-04T18:49:03.163Z,6.20
2023-02-04T18:51:35.492Z,6.20
2023-02-04T18:54:43.832Z,6.20
2023-02-04T18:57:28.891Z,6.20
2023-02-04T19:00:20.638Z,6.20
2023-02-04T19:02:50.665Z,6.20
2023-02-04T19:05:28.129Z,6.30
2023-02-04T19:08:15.029Z,6.30
2023-02-04T19:10:43.789Z,6.30
2023-02-04T19:13:19.084Z,6.20
2023-02-04T19:15:55.967Z,6.10
2023-02-04T19:18:27.577Z,6.00
2023-02-04T19:20:55.827Z,5.90
2023-02-04T19:23:25.605Z,5.80
2023-02-04T19:25:54.122Z,5.80
2023-02-04T19:28:30.498Z,5.70
2023-02-04T19:31:03.136Z,5.70
2023-02-04T19:33:36.793Z,5.70
2023-02-04T19:36:24.408Z,5.70
2023-02-04T19:38:59.965Z,5.70
2023-02-04T19:41:30.554Z,5.60
2023-02-04T19:44:32.938Z,5.60
2023-02-04T19:47:18.886Z,5.60
2023-02-04T19:49:47.146Z,5.70
2023-02-04T19:52:34.238Z,5.70
2023-02-04T19:55:25.852Z,5.80
2023-02-04T19:57:55.343Z,5.80
2023-02-04T20:00:39.033Z,5.90
2023-02-04T20:03:31.266Z,6.00
2023-02-04T20:06:03.018Z,6.10
2023-02-04T20:08:42.813Z,6.20
2023-02-04T20:11:41.531Z,6.20
2023-02-04T20:14:41.397Z,6.30
2023-02-04T20:17:18.890Z,6.50
2023-02-04T20:19:47.524Z,6.50
2023-02-04T20:22:43.873Z,6.50
2023-02-04T20:25:46.739Z,6.50
2023-02-04T20:28:35.726Z,6.60
2023-02-04T20:31:15.295Z,6.60
2023-02-04T20:33:48.682Z,6.70
2023-02-04T20:36:42.496Z,6.70
2023-02-04T20:39:38.671Z,6.80
2023-02-04T20:42:30.284Z,6.80
2023-02-04T20:45:21.364Z,6.80
2023-02-04T20:47:52.401Z,6.70
2023-02-04T20:50:41.462Z,6.70
2023-02-04T20:53:37.210Z,6.70
2023-02-04T20:56:21.918Z,6.70
2023-02-04T20:58:50.535Z,6.80
2023-02-04T21:01:26.115Z,6.80
2023-02-04T21:03:54.737Z,6.70
2023-02-04T21:06:25.091Z,6.70
2023-02-04T21:08:55.397Z,6.70
2023-02-04T21:11:23.936Z,6.80
2023-02-04T21:13:53.321Z,6.80
2023-02-04T21:16:23.044Z,6.80
2023-02-04T21:18:51.100Z,6.80
2023-02-04T21:21:20.280Z,6.70
2023-02-04T21:23:48.438Z,6.70
2023-02-04T21:26:16.451Z,6.80
2023-02-04T21:28:44.439Z,6.80
2023-02-04T21:31:12.646Z,6.80
2023-02-04T21:33:42.030Z,6.80
2023-02-04T21:36:10.380Z,6.70
2023-02-04T21:38:38.405Z,6.80
2023-02-04T21:41:06.769Z,6.80
2023-02-04T21:43:34.809Z,6.80
2023-02-04T21:46:02.802Z,6.80
2023-02-04T21:48:30.824Z,6.80
2023-02-04T21:51:00.150Z,6.80
2023-02-04T21:53:28.204Z,6.80
2023-02-04T21:55:57.436Z,6.90
2023-02-04T21:58:27.123Z,6.90
2023-02-04T22:00:55.225Z,6.90
2023-02-04T22:03:23.188Z,6.80
2023-02-04T22:05:51.208Z,6.80
2023-02-04T22:08:21.074Z,6.90
2023-02-04T22:10:49.034Z,6.80
2023-02-04T22:13:17.001Z,6.90
2023-02-04T22:15:45.014Z,6.80
2023-02-04T22:18:13.537Z,6.80
2023-02-04T22:20:41.665Z,6.80
2023-02-04T22:23:09.726Z,6.80
2023-02-04T22:25:39.070Z,6.80
2023-02-04T22:28:07.257Z,6.70
2023-02-04T22:30:35.209Z,6.80
2023-02-04T22:33:03.200Z,6.70
2023-02-04T22:35:34.982Z,6.70
2023-02-04T22:38:03.537Z,6.70
2023-02-04T22:40:31.862Z,6.60
2023-02-04T22:43:01.157Z,6.60
2023-02-04T22:45:29.156Z,6.50
2023-02-04T22:47:57.175Z,6.50
2023-02-04T22:50:25.235Z,6.50
2023-02-04T22:52:53.286Z,6.50
2023-02-04T22:55:21.234Z,6.50
2023-02-04T22:57:49.123Z,6.50
2023-02-04T23:00:19.147Z,6.50
2023-02-04T23:02:47.104Z,6.40
2023-02-04T23:05:15.052Z,6.40
2023-02-04T23:07:43.177Z,6.40
2023-02-04T23:10:11.383Z,6.30
2023-02-04T23:12:39.327Z,6.40
2023-02-04T23:15:07.799Z,6.30
2023-02-04T23:17:37.111Z,6.30
2023-02-04T23:20:05.840Z,6.30
2023-02-04T23:22:33.997Z,6.30
2023-02-04T23:25:01.976Z,6.30
2023-02-04T23:27:30.055Z,6.30
2023-02-04T23:29:58.019Z,6.40
2023-02-04T23:32:27.034Z,6.30
2023-02-04T23:34:56.418Z,6.30
2023-02-04T23:37:24.413Z,6.30
2023-02-04T23:39:52.397Z,6.40
2023-02-04T23:42:20.471Z,6.20
2023-02-04T23:44:48.415Z,6.30
2023-02-04T23:47:16.423Z,6.30
2023-02-04T23:49:44.450Z,6.30
2023-02-04T23:52:13.849Z,6.30
2023-02-04T23:54:41.975Z,6.30
2023-02-04T23:57:11.071Z,6.40
2023-02-04T23:59:41.011Z,6.30
